createdAt,value
2022-10-18T00:00:33.262Z,0.00
2022-10-18T00:01:33.854Z,0.00
2022-10-18T00:02:34.534Z,0.00
2022-10-18T00:03:35.255Z,0.00
2022-10-18T00:04:35.824Z,0.00
2022-10-18T00:05:36.377Z,0.00
2022-10-18T00:06:39.825Z,0.00
2022-10-18T00:07:37.874Z,0.00
2022-10-18T00:08:38.428Z,0.00
2022-10-18T00:09:38.979Z,0.00
2022-10-18T00:10:39.538Z,0.00
2022-10-18T00:11:40.117Z,0.00
2022-10-18T00:12:40.767Z,0.00
2022-10-18T00:13:41.387Z,0.00
2022-10-18T00:14:41.941Z,0.00
2022-10-18T00:15:42.517Z,0.00
2022-10-18T00:16:43.145Z,0.00
2022-10-18T00:17:43.688Z,0.00
2022-10-18T00:18:44.238Z,0.00
2022-10-18T00:19:44.795Z,0.00
2022-10-18T00:20:45.341Z,0.00
2022-10-18T00:21:46.008Z,0.00
2022-10-18T00:22:46.565Z,0.00
2022-10-18T00:23:47.108Z,0.00
2022-10-18T00:24:47.653Z,0.00
2022-10-18T00:25:48.198Z,0.00
2022-10-18T00:26:48.861Z,0.00
2022-10-18T00:27:49.415Z,0.00
2022-10-18T00:28:50.163Z,0.00
2022-10-18T00:29:50.851Z,0.00
2022-10-18T00:30:51.465Z,0.00
2022-10-18T00:31:52.083Z,0.00
2022-10-18T00:32:52.655Z,0.00
2022-10-18T00:33:53.220Z,0.00
2022-10-18T00:34:53.767Z,0.00
2022-10-18T00:35:54.311Z,0.00
2022-10-18T00:36:54.901Z,0.00
2022-10-18T00:37:55.453Z,0.00
2022-10-18T00:38:55.997Z,0.00
2022-10-18T00:39:56.556Z,0.00
2022-10-18T00:40:57.117Z,0.00
2022-10-18T00:41:58.012Z,0.00
2022-10-18T00:42:58.571Z,0.00
2022-10-18T00:43:59.117Z,0.00
2022-10-18T00:44:59.661Z,0.00
2022-10-18T00:46:00.236Z,0.00
2022-10-18T00:47:00.897Z,0.00
2022-10-18T00:48:01.459Z,0.00
2022-10-18T00:49:02.009Z,0.00
2022-10-18T00:50:02.576Z,0.00
2022-10-18T00:51:03.128Z,0.00
2022-10-18T00:52:03.760Z,0.00
2022-10-18T00:53:04.302Z,0.00
2022-10-18T00:54:04.858Z,0.00
2022-10-18T00:55:05.410Z,0.00
2022-10-18T00:56:05.962Z,0.00
2022-10-18T00:57:06.665Z,0.00
2022-10-18T00:58:07.210Z,0.00
2022-10-18T00:59:07.773Z,0.00
2022-10-18T01:00:08.321Z,0.00
2022-10-18T01:01:09.043Z,0.00
2022-10-18T01:02:09.765Z,0.00
2022-10-18T01:03:10.345Z,0.00
2022-10-18T01:04:10.899Z,0.00
2022-10-18T01:05:11.468Z,0.00
2022-10-18T01:06:12.018Z,0.00
2022-10-18T01:07:12.599Z,0.00
2022-10-18T01:08:13.141Z,0.00
2022-10-18T01:09:13.692Z,0.00
2022-10-18T01:10:14.236Z,0.00
2022-10-18T01:11:14.786Z,0.00
2022-10-18T01:12:15.374Z,0.00
2022-10-18T01:13:15.928Z,0.00
2022-10-18T01:14:16.475Z,0.00
2022-10-18T01:15:17.022Z,0.00
2022-10-18T01:16:17.642Z,0.00
2022-10-18T01:17:18.339Z,0.00
2022-10-18T01:18:18.898Z,0.00
2022-10-18T01:19:19.470Z,0.00
2022-10-18T01:20:20.025Z,0.00
2022-10-18T01:21:20.576Z,0.00
2022-10-18T01:22:21.168Z,0.00
2022-10-18T01:23:21.722Z,0.00
2022-10-18T01:24:22.273Z,0.00
2022-10-18T01:25:22.819Z,0.00
2022-10-18T01:26:23.368Z,0.00
2022-10-18T01:27:24.102Z,0.00
2022-10-18T01:28:24.671Z,0.00
2022-10-18T01:29:25.292Z,0.00
2022-10-18T01:30:25.853Z,0.00
2022-10-18T01:31:26.436Z,0.00
2022-10-18T01:32:27.141Z,0.00
2022-10-18T01:33:27.689Z,0.00
2022-10-18T01:34:28.246Z,0.00
2022-10-18T01:35:28.787Z,0.00
2022-10-18T01:36:29.335Z,0.00
2022-10-18T01:37:30.303Z,0.00
2022-10-18T01:38:30.578Z,0.00
2022-10-18T01:39:31.126Z,0.00
2022-10-18T01:40:31.679Z,0.00
2022-10-18T01:41:32.237Z,0.00
2022-10-18T01:42:32.812Z,0.00
2022-10-18T01:43:33.365Z,0.00
2022-10-18T01:44:33.915Z,0.00
2022-10-18T01:45:34.472Z,0.00
2022-10-18T01:46:35.047Z,0.00
2022-10-18T01:47:35.662Z,0.00
2022-10-18T01:48:36.214Z,0.00
2022-10-18T01:49:36.762Z,0.00
2022-10-18T01:50:37.307Z,0.00
2022-10-18T01:51:37.857Z,0.00
2022-10-18T01:52:38.471Z,0.00
2022-10-18T01:53:39.018Z,0.00
2022-10-18T01:54:39.575Z,0.00
2022-10-18T01:55:40.151Z,0.00
2022-10-18T01:56:40.704Z,0.00
2022-10-18T01:57:41.407Z,0.00
2022-10-18T01:58:41.958Z,0.00
2022-10-18T01:59:42.515Z,0.00
2022-10-18T02:00:43.068Z,0.00
2022-10-18T02:01:43.648Z,0.00
2022-10-18T02:02:44.243Z,0.00
2022-10-18T02:03:44.794Z,0.00
2022-10-18T02:04:45.344Z,0.00
2022-10-18T02:05:45.899Z,0.00
2022-10-18T02:06:46.454Z,0.00
2022-10-18T02:07:51.975Z,0.00
2022-10-18T02:08:47.946Z,0.00
2022-10-18T02:09:48.514Z,0.00
2022-10-18T02:10:49.055Z,0.00
2022-10-18T02:11:49.604Z,0.00
2022-10-18T02:12:50.185Z,0.00
2022-10-18T02:13:50.744Z,0.00
2022-10-18T02:14:51.289Z,0.00
2022-10-18T02:15:51.843Z,0.00
2022-10-18T02:16:52.415Z,0.00
2022-10-18T02:17:53.043Z,0.00
2022-10-18T02:18:53.589Z,0.00
2022-10-18T02:19:54.144Z,0.00
2022-10-18T02:20:54.718Z,0.00
2022-10-18T02:21:54.393Z,0.00
2022-10-18T02:22:56.002Z,0.00
2022-10-18T02:23:56.550Z,0.00
2022-10-18T02:24:57.097Z,0.00
2022-10-18T02:25:57.649Z,0.00
2022-10-18T02:26:58.200Z,0.00
2022-10-18T02:27:58.845Z,0.00
2022-10-18T02:28:59.388Z,0.00
2022-10-18T02:29:59.981Z,0.00
2022-10-18T02:31:00.527Z,0.00
2022-10-18T02:32:01.121Z,0.00
2022-10-18T02:33:01.848Z,0.00
2022-10-18T02:34:02.413Z,0.00
2022-10-18T02:35:02.957Z,0.00
2022-10-18T02:36:03.503Z,0.00
2022-10-18T02:37:04.046Z,0.00
2022-10-18T02:38:04.678Z,0.00
2022-10-18T02:39:05.223Z,0.00
2022-10-18T02:40:05.781Z,0.00
2022-10-18T02:41:06.334Z,0.00
2022-10-18T02:42:06.972Z,0.00
2022-10-18T02:43:07.643Z,0.00
2022-10-18T02:44:08.193Z,0.00
2022-10-18T02:45:08.744Z,0.00
2022-10-18T02:46:09.291Z,0.00
2022-10-18T02:47:09.884Z,0.00
2022-10-18T02:48:10.472Z,0.00
2022-10-18T02:49:11.031Z,0.00
2022-10-18T02:50:11.581Z,0.00
2022-10-18T02:51:12.126Z,0.00
2022-10-18T02:52:12.671Z,0.00
2022-10-18T02:53:13.284Z,0.00
2022-10-18T02:54:13.844Z,0.00
2022-10-18T02:55:14.395Z,0.00
2022-10-18T02:56:14.973Z,0.00
2022-10-18T02:57:15.533Z,0.00
2022-10-18T02:58:16.284Z,0.00
2022-10-18T02:59:16.848Z,0.00
2022-10-18T03:00:17.402Z,0.00
2022-10-18T03:01:17.974Z,0.00
2022-10-18T03:02:18.575Z,0.00
2022-10-18T03:03:19.229Z,0.00
2022-10-18T03:04:19.855Z,0.00
2022-10-18T03:05:20.421Z,0.00
2022-10-18T03:06:20.968Z,0.00
2022-10-18T03:07:21.517Z,0.00
2022-10-18T03:08:22.120Z,0.00
2022-10-18T03:09:22.682Z,0.00
2022-10-18T03:10:23.233Z,0.00
2022-10-18T03:11:23.781Z,0.00
2022-10-18T03:12:24.335Z,0.00
2022-10-18T03:13:25.048Z,0.00
2022-10-18T03:14:25.607Z,0.00
2022-10-18T03:15:26.154Z,0.00
2022-10-18T03:16:26.722Z,0.00
2022-10-18T03:17:27.296Z,0.00
2022-10-18T03:18:27.918Z,0.00
2022-10-18T03:19:28.477Z,0.00
2022-10-18T03:20:29.025Z,0.00
2022-10-18T03:21:29.573Z,0.00
2022-10-18T03:22:30.174Z,0.00
2022-10-18T03:23:30.820Z,0.00
2022-10-18T03:24:31.373Z,0.00
2022-10-18T03:25:31.923Z,0.00
2022-10-18T03:26:32.471Z,0.00
2022-10-18T03:27:33.465Z,0.00
2022-10-18T03:28:33.920Z,0.00
2022-10-18T03:29:34.490Z,0.00
2022-10-18T03:30:35.035Z,0.00
2022-10-18T03:31:35.588Z,0.00
2022-10-18T03:32:36.160Z,0.00
2022-10-18T03:33:36.746Z,0.00
2022-10-18T03:34:37.297Z,0.00
2022-10-18T03:35:37.854Z,0.00
2022-10-18T03:36:38.428Z,0.00
2022-10-18T03:37:38.986Z,0.00
2022-10-18T03:38:39.562Z,0.00
2022-10-18T03:39:40.109Z,0.00
2022-10-18T03:40:40.660Z,0.00
2022-10-18T03:41:41.210Z,0.00
2022-10-18T03:42:41.781Z,0.00
2022-10-18T03:43:42.358Z,0.00
2022-10-18T03:44:42.908Z,0.00
2022-10-18T03:45:43.465Z,0.00
2022-10-18T03:46:44.015Z,0.00
2022-10-18T03:47:44.588Z,0.00
2022-10-18T03:48:45.196Z,0.00
2022-10-18T03:49:45.748Z,0.00
2022-10-18T03:50:46.302Z,0.00
2022-10-18T03:51:46.852Z,0.00
2022-10-18T03:52:47.412Z,0.00
2022-10-18T03:53:47.994Z,0.00
2022-10-18T03:54:48.568Z,0.00
2022-10-18T03:55:49.118Z,0.00
2022-10-18T03:56:49.667Z,0.00
2022-10-18T03:57:50.218Z,0.00
2022-10-18T03:58:50.939Z,0.00
2022-10-18T03:59:51.500Z,0.00
2022-10-18T04:00:52.056Z,0.00
2022-10-18T04:01:52.729Z,0.00
2022-10-18T04:02:55.763Z,0.00
2022-10-18T04:03:54.274Z,0.00
2022-10-18T04:04:54.850Z,0.00
2022-10-18T04:05:55.403Z,0.00
2022-10-18T04:06:55.947Z,0.00
2022-10-18T04:07:56.494Z,0.00
2022-10-18T04:08:57.081Z,0.00
2022-10-18T04:09:57.619Z,0.00
2022-10-18T04:10:58.176Z,0.00
2022-10-18T04:11:58.740Z,0.00
2022-10-18T04:12:59.291Z,0.00
2022-10-18T04:13:59.877Z,0.00
2022-10-18T04:15:00.436Z,0.00
2022-10-18T04:16:00.991Z,0.00
2022-10-18T04:17:01.553Z,0.00
2022-10-18T04:18:02.128Z,0.00
2022-10-18T04:19:02.750Z,0.00
2022-10-18T04:20:03.262Z,1.00
2022-10-18T04:21:03.811Z,0.00
2022-10-18T04:22:04.359Z,0.00
2022-10-18T04:23:04.910Z,0.00
2022-10-18T04:24:05.489Z,0.00
2022-10-18T04:25:06.042Z,0.00
2022-10-18T04:26:06.592Z,0.00
2022-10-18T04:27:07.116Z,1.00
2022-10-18T04:28:07.615Z,1.00
2022-10-18T04:29:08.356Z,2.00
2022-10-18T04:30:08.921Z,2.00
2022-10-18T04:31:09.413Z,3.00
2022-10-18T04:32:10.402Z,1.00
2022-10-18T04:33:11.399Z,3.00
2022-10-18T04:34:11.942Z,4.00
2022-10-18T04:35:12.467Z,5.00
2022-10-18T04:36:12.964Z,3.00
2022-10-18T04:37:13.452Z,6.00
2022-10-18T04:38:13.948Z,9.00
2022-10-18T04:39:14.971Z,11.00
2022-10-18T04:40:25.703Z,11.00
2022-10-18T04:41:19.005Z,13.00
2022-10-18T04:42:16.995Z,15.00
2022-10-18T04:43:17.492Z,17.00
2022-10-18T04:44:18.533Z,18.00
2022-10-18T04:45:19.032Z,25.00
2022-10-18T04:46:20.497Z,29.00
2022-10-18T04:47:20.512Z,28.00
2022-10-18T04:48:21.015Z,28.00
2022-10-18T04:49:22.834Z,25.00
2022-10-18T04:50:22.386Z,18.00
2022-10-18T04:51:25.369Z,18.00
2022-10-18T04:52:23.884Z,15.00
2022-10-18T04:53:24.533Z,12.00
2022-10-18T04:54:27.880Z,22.00
2022-10-18T04:55:25.674Z,28.00
2022-10-18T04:56:26.183Z,31.00
2022-10-18T04:57:31.804Z,34.00
2022-10-18T04:58:27.727Z,40.00
2022-10-18T04:59:28.414Z,35.00
2022-10-18T05:00:29.425Z,38.00
2022-10-18T05:01:29.483Z,42.00
2022-10-18T05:02:30.720Z,51.00
2022-10-18T05:03:30.814Z,53.00
2022-10-18T05:04:31.349Z,57.00
2022-10-18T05:05:50.039Z,55.00
2022-10-18T05:06:49.130Z,62.00
2022-10-18T05:07:49.839Z,63.00
2022-10-18T05:08:38.065Z,60.00
2022-10-18T05:10:02.351Z,62.00
2022-10-18T05:10:35.893Z,66.00
2022-10-18T05:11:36.682Z,74.00
2022-10-18T05:12:37.257Z,83.00
2022-10-18T05:13:39.588Z,82.00
2022-10-18T05:14:41.791Z,82.00
2022-10-18T05:15:39.409Z,82.00
2022-10-18T05:17:15.673Z,85.00
2022-10-18T05:17:40.661Z,84.00
2022-10-18T05:18:44.309Z,91.00
2022-10-18T05:19:42.444Z,99.00
2022-10-18T05:20:43.823Z,94.00
2022-10-18T05:21:43.549Z,105.00
2022-10-18T05:22:44.082Z,114.00
2022-10-18T05:23:44.664Z,98.00
2022-10-18T05:24:45.259Z,114.00
2022-10-18T05:25:47.114Z,115.00
2022-10-18T05:26:46.553Z,94.00
2022-10-18T05:27:47.104Z,94.00
2022-10-18T05:28:47.705Z,116.00
2022-10-18T05:29:48.353Z,94.00
2022-10-18T05:30:48.940Z,113.00
2022-10-18T05:31:49.565Z,151.00
2022-10-18T05:32:50.097Z,136.00
2022-10-18T05:33:50.642Z,148.00
2022-10-18T05:34:51.224Z,214.00
2022-10-18T05:35:51.788Z,281.00
2022-10-18T05:36:52.321Z,253.00
2022-10-18T05:37:52.989Z,213.00
2022-10-18T05:38:53.536Z,206.00
2022-10-18T05:39:54.154Z,194.00
2022-10-18T05:40:54.693Z,210.00
2022-10-18T05:41:55.221Z,213.00
2022-10-18T05:42:55.755Z,249.00
2022-10-18T05:43:56.288Z,267.00
2022-10-18T05:44:56.849Z,236.00
2022-10-18T05:45:57.381Z,212.00
2022-10-18T05:46:57.911Z,193.00
2022-10-18T05:47:58.444Z,192.00
2022-10-18T05:48:58.974Z,200.00
2022-10-18T05:50:00.065Z,207.00
2022-10-18T05:51:00.120Z,211.00
2022-10-18T05:52:00.646Z,210.00
2022-10-18T05:53:12.059Z,217.00
2022-10-18T05:54:02.051Z,214.00
2022-10-18T05:55:02.650Z,197.00
2022-10-18T05:56:03.215Z,233.00
2022-10-18T05:57:03.752Z,326.00
2022-10-18T05:58:04.290Z,353.00
2022-10-18T05:59:04.821Z,375.00
2022-10-18T06:00:05.466Z,359.00
2022-10-18T06:01:05.999Z,339.00
2022-10-18T06:02:08.527Z,277.00
2022-10-18T06:03:07.391Z,274.00
2022-10-18T06:04:07.919Z,295.00
2022-10-18T06:05:08.919Z,286.00
2022-10-18T06:06:09.130Z,283.00
2022-10-18T06:07:09.669Z,252.00
2022-10-18T06:08:10.442Z,231.00
2022-10-18T06:09:11.786Z,259.00
2022-10-18T06:10:11.867Z,275.00
2022-10-18T06:11:18.628Z,280.00
2022-10-18T06:12:13.261Z,328.00
2022-10-18T06:13:13.800Z,291.00
2022-10-18T06:14:14.337Z,301.00
2022-10-18T06:15:14.923Z,266.00
2022-10-18T06:16:15.535Z,236.00
2022-10-18T06:17:16.134Z,260.00
2022-10-18T06:18:16.929Z,286.00
2022-10-18T06:19:23.469Z,310.00
2022-10-18T06:20:19.817Z,174.00
2022-10-18T06:21:18.926Z,172.00
2022-10-18T06:22:20.910Z,243.00
2022-10-18T06:23:38.205Z,213.00
2022-10-18T06:24:20.852Z,231.00
2022-10-18T06:25:21.591Z,192.00
2022-10-18T06:26:22.141Z,279.00
2022-10-18T06:27:22.673Z,264.00
2022-10-18T06:28:23.205Z,343.00
2022-10-18T06:29:23.749Z,345.00
2022-10-18T06:30:24.332Z,303.00
2022-10-18T06:31:24.999Z,312.00
2022-10-18T06:32:25.622Z,315.00
2022-10-18T06:33:26.174Z,282.00
2022-10-18T06:34:27.542Z,278.00
2022-10-18T06:35:27.500Z,345.00
2022-10-18T06:36:28.070Z,404.00
2022-10-18T06:37:28.697Z,398.00
2022-10-18T06:38:29.321Z,361.00
2022-10-18T06:39:29.849Z,342.00
2022-10-18T06:40:30.433Z,289.00
2022-10-18T06:41:30.960Z,276.00
2022-10-18T06:42:31.921Z,279.00
2022-10-18T06:43:32.475Z,299.00
2022-10-18T06:44:36.421Z,251.00
2022-10-18T06:45:35.361Z,215.00
2022-10-18T06:46:34.927Z,202.00
2022-10-18T06:47:35.528Z,215.00
2022-10-18T06:48:36.070Z,232.00
2022-10-18T06:49:36.622Z,253.00
2022-10-18T06:50:37.198Z,273.00
2022-10-18T06:51:38.174Z,305.00
2022-10-18T06:52:38.747Z,256.00
2022-10-18T06:53:44.033Z,289.00
2022-10-18T06:54:40.161Z,350.00
2022-10-18T06:55:44.032Z,371.00
2022-10-18T06:56:41.657Z,381.00
2022-10-18T06:57:42.211Z,387.00
2022-10-18T06:58:45.318Z,429.00
2022-10-18T06:59:43.295Z,439.00
2022-10-18T07:00:43.937Z,447.00
2022-10-18T07:01:44.542Z,485.00
2022-10-18T07:02:45.174Z,518.00
2022-10-18T07:03:45.759Z,529.00
2022-10-18T07:04:46.567Z,520.00
2022-10-18T07:05:47.232Z,582.00
2022-10-18T07:06:47.876Z,591.00
2022-10-18T07:07:50.642Z,524.00
2022-10-18T07:08:49.266Z,548.00
2022-10-18T07:09:49.799Z,590.00
2022-10-18T07:10:50.382Z,569.00
2022-10-18T07:11:50.910Z,550.00
2022-10-18T07:12:53.502Z,545.00
2022-10-18T07:13:52.076Z,516.00
2022-10-18T07:14:52.603Z,489.00
2022-10-18T07:15:53.190Z,489.00
2022-10-18T07:16:53.728Z,509.00
2022-10-18T07:17:54.321Z,531.00
2022-10-18T07:18:54.858Z,568.00
2022-10-18T07:19:55.387Z,596.00
2022-10-18T07:20:56.033Z,632.00
2022-10-18T07:27:51.462Z,704.00
2022-10-18T07:28:25.485Z,677.00
2022-10-18T07:29:26.031Z,698.00
2022-10-18T07:30:26.557Z,695.00
2022-10-18T07:31:27.113Z,739.00
2022-10-18T07:32:27.654Z,807.00
2022-10-18T07:33:28.239Z,847.00
2022-10-18T07:34:29.022Z,838.00
2022-10-18T07:35:29.552Z,779.00
2022-10-18T07:36:30.093Z,753.00
2022-10-18T07:37:30.677Z,780.00
2022-10-18T07:38:31.289Z,789.00
2022-10-18T07:45:20.235Z,838.00
2022-10-18T07:46:00.227Z,794.00
2022-10-18T07:47:00.909Z,841.00
2022-10-18T07:48:01.462Z,879.00
2022-10-18T07:49:01.989Z,915.00
2022-10-18T07:50:09.384Z,886.00
2022-10-18T07:51:36.919Z,960.00
2022-10-18T07:52:03.928Z,939.00
2022-10-18T07:53:04.451Z,994.00
2022-10-18T07:54:05.139Z,1021.00
2022-10-18T07:55:05.673Z,1047.00
2022-10-18T07:56:08.731Z,1023.00
2022-10-18T07:57:06.785Z,852.00
2022-10-18T07:58:22.873Z,904.00
2022-10-18T07:59:08.129Z,895.00
2022-10-18T08:00:11.370Z,851.00
2022-10-18T08:01:09.652Z,927.00
2022-10-18T08:02:10.287Z,1013.00
2022-10-18T08:03:10.819Z,1070.00
2022-10-18T08:04:16.118Z,1104.00
2022-10-18T08:05:12.248Z,1148.00
2022-10-18T08:06:12.841Z,1146.00
2022-10-18T08:07:13.378Z,1158.00
2022-10-18T08:08:13.907Z,1247.00
2022-10-18T08:09:14.433Z,799.00
2022-10-18T08:10:14.930Z,757.00
2022-10-18T08:11:15.454Z,856.00
2022-10-18T08:12:15.949Z,813.00
2022-10-18T08:13:16.443Z,716.00
2022-10-18T08:14:17.433Z,1018.00
2022-10-18T08:15:18.423Z,855.00
2022-10-18T08:16:20.411Z,681.00
2022-10-18T08:17:19.948Z,778.00
2022-10-18T08:18:20.435Z,1050.00
2022-10-18T08:19:20.931Z,1098.00
2022-10-18T08:20:30.524Z,1073.00
2022-10-18T08:21:22.874Z,1063.00
2022-10-18T08:22:23.374Z,1095.00
2022-10-18T08:23:23.871Z,1038.00
2022-10-18T08:24:24.866Z,942.00
2022-10-18T08:25:25.521Z,920.00
2022-10-18T08:26:26.091Z,987.00
2022-10-18T08:27:26.589Z,1117.00
2022-10-18T08:28:27.154Z,1231.00
2022-10-18T08:29:31.506Z,1172.00
2022-10-18T08:30:28.409Z,999.00
2022-10-18T08:31:29.007Z,1014.00
2022-10-18T08:32:29.880Z,1017.00
2022-10-18T08:33:30.146Z,777.00
2022-10-18T08:34:30.771Z,652.00
2022-10-18T08:35:31.344Z,683.00
2022-10-18T08:36:31.894Z,606.00
2022-10-18T08:37:33.034Z,635.00
2022-10-18T08:38:33.238Z,664.00
2022-10-18T08:39:33.742Z,705.00
2022-10-18T08:40:34.273Z,745.00
2022-10-18T08:41:34.795Z,709.00
2022-10-18T08:42:35.555Z,661.00
2022-10-18T08:44:36.046Z,701.00
2022-10-18T08:45:42.262Z,704.00
2022-10-18T08:46:38.465Z,707.00
2022-10-18T08:47:38.963Z,760.00
2022-10-18T08:48:39.482Z,704.00
2022-10-18T08:49:45.621Z,661.00
2022-10-18T08:50:40.899Z,679.00
2022-10-18T08:51:41.490Z,716.00
2022-10-18T08:52:43.320Z,655.00
2022-10-18T08:53:42.976Z,599.00
2022-10-18T08:54:43.540Z,674.00
2022-10-18T08:55:45.959Z,792.00
2022-10-18T08:56:44.638Z,797.00
2022-10-18T08:57:45.184Z,862.00
2022-10-18T08:58:45.714Z,800.00
2022-10-18T08:59:46.248Z,815.00
2022-10-18T09:00:46.794Z,787.00
2022-10-18T09:02:47.117Z,802.00
2022-10-18T09:03:48.734Z,862.00
2022-10-18T09:04:49.463Z,886.00
2022-10-18T09:05:50.000Z,815.00
2022-10-18T09:06:51.193Z,797.00
2022-10-18T09:07:51.211Z,841.00
2022-10-18T09:08:51.716Z,1029.00
2022-10-18T09:09:52.208Z,1177.00
2022-10-18T09:10:52.768Z,1259.00
2022-10-18T09:11:54.958Z,1122.00
2022-10-18T09:12:53.779Z,1126.00
2022-10-18T09:13:54.913Z,1283.00
2022-10-18T09:14:55.447Z,1527.00
2022-10-18T09:15:56.025Z,1438.00
2022-10-18T09:16:56.670Z,1464.00
2022-10-18T09:17:57.277Z,1647.00
2022-10-18T09:18:57.836Z,1426.00
2022-10-18T09:20:57.947Z,1264.00
2022-10-18T09:21:59.633Z,1242.00
2022-10-18T09:23:00.167Z,1560.00
2022-10-18T09:24:00.704Z,1681.00
2022-10-18T09:25:01.236Z,1893.00
2022-10-18T09:26:01.768Z,1842.00
2022-10-18T09:27:02.441Z,1901.00
2022-10-18T09:28:02.994Z,1952.00
2022-10-18T09:29:03.878Z,1794.00
2022-10-18T09:30:04.559Z,1481.00
2022-10-18T09:31:05.088Z,1334.00
2022-10-18T09:32:05.707Z,1546.00
2022-10-18T09:33:06.252Z,1564.00
2022-10-18T09:34:06.777Z,1588.00
2022-10-18T09:35:07.307Z,1349.00
2022-10-18T09:36:07.839Z,1258.00
2022-10-18T09:37:08.421Z,1356.00
2022-10-18T09:38:08.955Z,1364.00
2022-10-18T09:39:09.664Z,1284.00
2022-10-18T09:40:12.174Z,1134.00
2022-10-18T09:41:11.019Z,1444.00
2022-10-18T09:42:11.604Z,1344.00
2022-10-18T09:43:12.164Z,1254.00
2022-10-18T09:44:12.710Z,1290.00
2022-10-18T09:45:13.240Z,1288.00
2022-10-18T09:46:13.810Z,1419.00
2022-10-18T09:47:16.840Z,1344.00
2022-10-18T09:48:15.363Z,1525.00
2022-10-18T09:49:16.429Z,1488.00
2022-10-18T09:50:16.624Z,1761.00
2022-10-18T09:51:17.152Z,1746.00
2022-10-18T09:52:17.742Z,1429.00
2022-10-18T09:53:18.286Z,1039.00
2022-10-18T09:54:18.818Z,800.00
2022-10-18T09:55:19.344Z,842.00
2022-10-18T09:56:19.870Z,1142.00
2022-10-18T09:57:20.532Z,1337.00
2022-10-18T09:58:21.072Z,1224.00
2022-10-18T09:59:21.623Z,954.00
2022-10-18T10:00:22.151Z,792.00
2022-10-18T10:01:22.702Z,868.00
2022-10-18T10:02:23.453Z,944.00
2022-10-18T10:03:24.020Z,927.00
2022-10-18T10:04:24.547Z,1018.00
2022-10-18T10:05:25.080Z,1245.00
2022-10-18T10:06:25.609Z,1511.00
2022-10-18T10:07:27.696Z,1529.00
2022-10-18T10:08:26.919Z,1791.00
2022-10-18T10:09:27.458Z,1479.00
2022-10-18T10:10:28.004Z,1394.00
2022-10-18T10:11:28.530Z,1167.00
2022-10-18T10:12:29.108Z,1082.00
2022-10-18T10:13:29.658Z,1232.00
2022-10-18T10:14:30.224Z,1730.00
2022-10-18T10:15:35.351Z,1654.00
2022-10-18T10:16:31.671Z,1554.00
2022-10-18T10:17:32.534Z,2613.00
2022-10-18T10:18:32.830Z,1645.00
2022-10-18T10:19:33.371Z,2008.00
2022-10-18T10:20:36.249Z,2623.00
2022-10-18T10:21:35.065Z,2404.00
2022-10-18T10:22:49.110Z,2331.00
2022-10-18T10:27:14.781Z,1977.00
2022-10-18T10:28:15.872Z,1988.00
2022-10-18T10:29:17.502Z,1917.00
2022-10-18T10:30:17.272Z,2054.00
2022-10-18T10:31:17.812Z,2139.00
2022-10-18T10:32:18.394Z,1916.00
2022-10-18T10:33:19.053Z,1836.00
2022-10-18T10:34:19.584Z,2011.00
2022-10-18T10:35:35.317Z,1962.00
2022-10-18T10:36:20.985Z,2020.00
2022-10-18T10:37:21.855Z,2038.00
2022-10-18T10:38:22.729Z,1987.00
2022-10-18T10:39:23.265Z,2009.00
2022-10-18T10:40:26.529Z,1803.00
2022-10-18T10:41:24.709Z,1566.00
2022-10-18T10:42:25.296Z,1337.00
2022-10-18T10:43:37.195Z,1402.00
2022-10-18T10:44:26.753Z,1489.00
2022-10-18T10:45:27.794Z,1417.00
2022-10-18T10:46:27.912Z,1484.00
2022-10-18T10:47:28.447Z,1570.00
2022-10-18T10:48:33.103Z,1237.00
2022-10-18T10:49:45.255Z,1150.00
2022-10-18T10:50:30.900Z,1262.00
2022-10-18T10:51:31.476Z,1347.00
2022-10-18T10:52:32.008Z,1496.00
2022-10-18T10:53:32.593Z,1491.00
2022-10-18T10:54:33.134Z,1538.00
2022-10-18T10:55:35.708Z,1726.00
2022-10-18T10:56:34.462Z,1957.00
2022-10-18T10:57:34.991Z,1732.00
2022-10-18T10:58:35.569Z,1512.00
2022-10-18T10:59:36.132Z,1562.00
2022-10-18T11:00:36.688Z,1441.00
2022-10-18T11:01:41.695Z,1334.00
2022-10-18T11:03:30.339Z,1286.00
2022-10-18T11:03:44.158Z,1085.00
2022-10-18T11:04:39.157Z,1083.00
2022-10-18T11:05:39.698Z,1273.00
2022-10-18T11:06:40.227Z,1349.00
2022-10-18T11:07:40.756Z,1192.00
2022-10-18T11:08:41.400Z,1207.00
2022-10-18T11:09:42.047Z,1395.00
2022-10-18T11:10:42.583Z,1420.00
2022-10-18T11:11:43.115Z,1390.00
2022-10-18T11:12:43.649Z,1613.00
2022-10-18T11:13:45.616Z,1705.00
2022-10-18T11:14:44.996Z,1842.00
2022-10-18T11:15:45.523Z,1432.00
2022-10-18T11:16:46.045Z,1743.00
2022-10-18T11:17:46.647Z,1786.00
2022-10-18T11:18:47.284Z,1784.00
2022-10-18T11:19:47.813Z,2257.00
2022-10-18T11:20:48.341Z,2066.00
2022-10-18T11:21:48.873Z,1999.00
2022-10-18T11:22:49.405Z,1871.00
2022-10-18T11:23:50.036Z,1639.00
2022-10-18T11:24:50.579Z,1677.00
2022-10-18T11:25:51.109Z,1541.00
2022-10-18T11:26:53.739Z,1722.00
2022-10-18T11:27:52.504Z,1721.00
2022-10-18T11:28:53.128Z,1805.00
2022-10-18T11:29:53.709Z,1841.00
2022-10-18T11:30:54.237Z,1937.00
2022-10-18T11:31:54.779Z,2091.00
2022-10-18T11:32:55.311Z,2210.00
2022-10-18T11:34:08.688Z,2191.00
2022-10-18T11:34:56.765Z,2149.00
2022-10-18T11:36:00.272Z,2041.00
2022-10-18T11:37:25.936Z,1996.00
2022-10-18T11:37:59.037Z,1811.00
2022-10-18T11:38:59.632Z,1814.00
2022-10-18T11:40:00.171Z,1800.00
2022-10-18T11:41:00.697Z,1679.00
2022-10-18T11:42:01.231Z,1731.00
2022-10-18T11:43:01.770Z,1752.00
2022-10-18T11:44:03.567Z,1652.00
2022-10-18T11:45:02.928Z,1686.00
2022-10-18T11:46:03.464Z,1760.00
2022-10-18T11:47:03.993Z,1914.00
2022-10-18T11:48:04.525Z,1978.00
2022-10-18T11:49:05.190Z,1804.00
2022-10-18T11:50:05.719Z,1584.00
2022-10-18T11:51:06.252Z,1496.00
2022-10-18T11:52:09.044Z,1526.00
2022-10-18T11:53:07.357Z,1564.00
2022-10-18T11:54:07.956Z,1577.00
2022-10-18T11:55:08.504Z,1407.00
2022-10-18T11:56:09.043Z,1367.00
2022-10-18T11:57:09.601Z,1368.00
2022-10-18T11:58:10.134Z,1381.00
2022-10-18T11:59:10.716Z,1395.00
2022-10-18T12:00:11.319Z,1467.00
2022-10-18T12:01:11.872Z,1415.00
2022-10-18T12:02:12.442Z,1334.00
2022-10-18T12:03:12.998Z,1352.00
2022-10-18T12:04:13.662Z,1476.00
2022-10-18T12:05:29.497Z,1437.00
2022-10-18T12:06:15.069Z,1386.00
2022-10-18T12:07:15.597Z,1532.00
2022-10-18T12:08:16.130Z,1633.00
2022-10-18T12:09:16.814Z,1592.00
2022-10-18T12:10:26.120Z,1443.00
2022-10-18T12:11:18.228Z,1376.00
2022-10-18T12:12:18.771Z,1510.00
2022-10-18T12:13:19.308Z,1615.00
2022-10-18T12:14:19.911Z,1760.00
2022-10-18T12:15:20.434Z,1701.00
2022-10-18T12:16:38.967Z,1706.00
2022-10-18T12:17:51.036Z,1364.00
2022-10-18T12:18:22.723Z,1118.00
2022-10-18T12:19:26.391Z,1055.00
2022-10-18T12:20:23.785Z,957.00
2022-10-18T12:21:25.770Z,907.00
2022-10-18T12:22:24.904Z,1026.00
2022-10-18T12:23:25.512Z,790.00
2022-10-18T12:24:26.141Z,605.00
2022-10-18T12:25:26.665Z,519.00
2022-10-18T12:26:27.196Z,491.00
2022-10-18T12:27:27.744Z,551.00
2022-10-18T12:28:28.324Z,590.00
2022-10-18T12:29:28.932Z,609.00
2022-10-18T12:30:29.478Z,646.00
2022-10-18T12:31:30.129Z,661.00
2022-10-18T12:32:31.106Z,694.00
2022-10-18T12:33:31.442Z,670.00
2022-10-18T12:34:32.051Z,569.00
2022-10-18T12:35:32.581Z,521.00
2022-10-18T12:36:33.131Z,547.00
2022-10-18T12:37:34.156Z,517.00
2022-10-18T12:38:34.464Z,487.00
2022-10-18T12:39:43.679Z,494.00
2022-10-18T12:40:35.916Z,508.00
2022-10-18T12:41:36.445Z,543.00
2022-10-18T12:42:36.994Z,528.00
2022-10-18T12:43:37.524Z,535.00
2022-10-18T12:44:38.106Z,570.00
2022-10-18T12:45:38.655Z,592.00
2022-10-18T12:46:39.188Z,606.00
2022-10-18T12:47:39.722Z,645.00
2022-10-18T12:48:40.257Z,641.00
2022-10-18T12:49:42.704Z,689.00
2022-10-18T12:50:41.612Z,711.00
2022-10-18T12:51:42.145Z,737.00
2022-10-18T12:52:42.672Z,802.00
2022-10-18T12:53:43.203Z,784.00
2022-10-18T12:54:43.786Z,733.00
2022-10-18T12:55:44.324Z,786.00
2022-10-18T12:56:44.861Z,856.00
2022-10-18T12:57:45.392Z,898.00
2022-10-18T12:58:45.922Z,902.00
2022-10-18T12:59:46.573Z,899.00
2022-10-18T13:00:47.107Z,832.00
2022-10-18T13:01:47.675Z,736.00
2022-10-18T13:02:48.228Z,717.00
2022-10-18T13:03:48.768Z,690.00
2022-10-18T13:04:49.609Z,671.00
2022-10-18T13:05:55.044Z,686.00